sensor_id;sensor_type;location;lat;lon;timestamp;pressure;altitude;pressure_sealevel;temperature;humidity
30618;BME280;17384;51.214;9.202;2023-03-22T00:02:22;98345.84;;;6.92;88.93
30618;BME280;17384;51.214;9.202;2023-03-22T00:04:50;98352.88;;;6.87;89.25
30618;BME280;17384;51.214;9.202;2023-03-22T00:07:16;98351.63;;;6.83;89.53
30618;BME280;17384;51.214;9.202;2023-03-22T00:09:42;98349.97;;;6.88;89.43
30618;BME280;17384;51.214;9.202;2023-03-22T00:12:07;98347.50;;;6.93;89.42
30618;BME280;17384;51.214;9.202;2023-03-22T00:14:33;98340.63;;;6.91;89.33
30618;BME280;17384;51.214;9.202;2023-03-22T00:16:58;98335.84;;;6.86;89.23
30618;BME280;17384;51.214;9.202;2023-03-22T00:19:24;98343.53;;;6.83;89.22
30618;BME280;17384;51.214;9.202;2023-03-22T00:21:50;98336.69;;;6.80;89.30
30618;BME280;17384;51.214;9.202;2023-03-22T00:24:16;98331.50;;;6.78;89.53
30618;BME280;17384;51.214;9.202;2023-03-22T00:26:41;98326.75;;;6.81;89.87
30618;BME280;17384;51.214;9.202;2023-03-22T00:29:07;98323.00;;;6.82;89.42
30618;BME280;17384;51.214;9.202;2023-03-22T00:31:32;98320.25;;;6.68;89.34
30618;BME280;17384;51.214;9.202;2023-03-22T00:33:58;98321.72;;;6.71;88.89
30618;BME280;17384;51.214;9.202;2023-03-22T00:36:24;98333.72;;;6.62;89.27
30618;BME280;17384;51.214;9.202;2023-03-22T00:38:49;98333.28;;;6.58;89.40
30618;BME280;17384;51.214;9.202;2023-03-22T00:41:20;98329.06;;;6.42;89.69
30618;BME280;17384;51.214;9.202;2023-03-22T00:43:47;98334.63;;;6.34;89.86
30618;BME280;17384;51.214;9.202;2023-03-22T00:46:14;98332.97;;;6.27;90.20
30618;BME280;17384;51.214;9.202;2023-03-22T00:48:40;98317.19;;;6.24;89.94
30618;BME280;17384;51.214;9.202;2023-03-22T00:51:07;98332.44;;;6.10;89.84
30618;BME280;17384;51.214;9.202;2023-03-22T00:53:33;98324.94;;;5.99;89.82
30618;BME280;17384;51.214;9.202;2023-03-22T00:56:01;98319.53;;;5.99;90.24
30618;BME280;17384;51.214;9.202;2023-03-22T00:58:26;98321.09;;;5.87;90.05
30618;BME280;17384;51.214;9.202;2023-03-22T01:00:52;98316.09;;;5.84;90.67
30618;BME280;17384;51.214;9.202;2023-03-22T01:03:17;98308.25;;;6.17;91.20
30618;BME280;17384;51.214;9.202;2023-03-22T01:05:44;98319.88;;;6.30;90.35
30618;BME280;17384;51.214;9.202;2023-03-22T01:08:09;98304.06;;;6.14;90.45
30618;BME280;17384;51.214;9.202;2023-03-22T01:10:38;98297.56;;;6.02;90.43
30618;BME280;17384;51.214;9.202;2023-03-22T01:13:04;98298.50;;;5.88;90.76
30618;BME280;17384;51.214;9.202;2023-03-22T01:15:30;98309.88;;;5.83;90.74
30618;BME280;17384;51.214;9.202;2023-03-22T01:17:57;98304.63;;;5.75;91.01
30618;BME280;17384;51.214;9.202;2023-03-22T01:20:22;98292.81;;;5.69;91.16
30618;BME280;17384;51.214;9.202;2023-03-22T01:22:48;98292.81;;;5.69;91.16
30618;BME280;17384;51.214;9.202;2023-03-22T01:25:13;98296.53;;;5.68;91.04
30618;BME280;17384;51.214;9.202;2023-03-22T01:27:39;98301.44;;;5.58;91.01
30618;BME280;17384;51.214;9.202;2023-03-22T01:30:05;98290.03;;;5.56;91.18
30618;BME280;17384;51.214;9.202;2023-03-22T01:32:31;98282.50;;;5.45;91.47
30618;BME280;17384;51.214;9.202;2023-03-22T01:34:57;98285.63;;;5.49;91.76
30618;BME280;17384;51.214;9.202;2023-03-22T01:37:22;98287.91;;;5.52;91.84
30618;BME280;17384;51.214;9.202;2023-03-22T01:39:54;98290.59;;;5.45;91.82
30618;BME280;17384;51.214;9.202;2023-03-22T01:42:22;98289.13;;;5.42;91.95
30618;BME280;17384;51.214;9.202;2023-03-22T01:47:46;98280.59;;;5.39;91.55
30618;BME280;17384;51.214;9.202;2023-03-22T01:50:14;98272.41;;;5.26;91.67
30618;BME280;17384;51.214;9.202;2023-03-22T01:52:41;98275.66;;;5.15;91.57
30618;BME280;17384;51.214;9.202;2023-03-22T01:55:07;98274.75;;;5.07;91.93
30618;BME280;17384;51.214;9.202;2023-03-22T01:57:36;98276.34;;;5.02;92.13
30618;BME280;17384;51.214;9.202;2023-03-22T02:00:08;98277.31;;;5.16;92.50
30618;BME280;17384;51.214;9.202;2023-03-22T02:02:37;98250.94;;;5.04;93.00
30618;BME280;17384;51.214;9.202;2023-03-22T02:05:03;98260.28;;;5.08;92.60
30618;BME280;17384;51.214;9.202;2023-03-22T02:07:29;98266.03;;;5.05;92.82
30618;BME280;17384;51.214;9.202;2023-03-22T02:09:57;98259.91;;;5.12;92.76
30618;BME280;17384;51.214;9.202;2023-03-22T02:12:45;98266.03;;;5.05;92.59
30618;BME280;17384;51.214;9.202;2023-03-22T02:15:27;98247.41;;;5.04;92.65
30618;BME280;17384;51.214;9.202;2023-03-22T02:32:07;98254.25;;;5.06;93.11
30618;BME280;17384;51.214;9.202;2023-03-22T02:45:53;98239.28;;;5.19;94.22
30618;BME280;17384;51.214;9.202;2023-03-22T02:48:29;98245.69;;;5.18;93.90
30618;BME280;17384;51.214;9.202;2023-03-22T02:51:05;98245.44;;;5.13;93.97
30618;BME280;17384;51.214;9.202;2023-03-22T02:53:41;98238.31;;;5.05;94.22
30618;BME280;17384;51.214;9.202;2023-03-22T02:56:12;98247.28;;;5.12;94.28
30618;BME280;17384;51.214;9.202;2023-03-22T02:58:44;98240.88;;;5.13;94.34
30618;BME280;17384;51.214;9.202;2023-03-22T03:01:18;98239.28;;;4.97;93.91
30618;BME280;17384;51.214;9.202;2023-03-22T03:03:47;98249.75;;;4.86;94.17
30618;BME280;17384;51.214;9.202;2023-03-22T03:06:19;98240.22;;;4.83;94.20
30618;BME280;17384;51.214;9.202;2023-03-22T03:08:47;98245.22;;;4.86;94.28
30618;BME280;17384;51.214;9.202;2023-03-22T03:11:18;98237.81;;;4.95;94.42
30618;BME280;17384;51.214;9.202;2023-03-22T03:13:47;98226.91;;;4.75;94.05
30618;BME280;17384;51.214;9.202;2023-03-22T03:16:16;98237.41;;;4.91;94.20
30618;BME280;17384;51.214;9.202;2023-03-22T03:19:02;98227.69;;;4.90;93.49
30618;BME280;17384;51.214;9.202;2023-03-22T03:29:40;98213.44;;;4.96;92.84
30618;BME280;17384;51.214;9.202;2023-03-22T03:32:18;98202.56;;;5.04;92.08
30618;BME280;17384;51.214;9.202;2023-03-22T03:34:56;98191.66;;;4.85;92.21
30618;BME280;17384;51.214;9.202;2023-03-22T03:37:28;98200.47;;;4.79;92.84
30618;BME280;17384;51.214;9.202;2023-03-22T03:40:15;98205.84;;;4.79;93.33
30618;BME280;17384;51.214;9.202;2023-03-22T03:42:46;98215.25;;;4.68;93.34
30618;BME280;17384;51.214;9.202;2023-03-22T03:45:14;98200.75;;;4.62;93.84
30618;BME280;17384;51.214;9.202;2023-03-22T03:47:42;98213.56;;;4.60;94.02
30618;BME280;17384;51.214;9.202;2023-03-22T03:50:10;98203.19;;;4.57;94.22
30618;BME280;17384;51.214;9.202;2023-03-22T03:52:37;98192.88;;;4.61;94.57
30618;BME280;17384;51.214;9.202;2023-03-22T03:55:03;98195.97;;;4.58;94.55
30618;BME280;17384;51.214;9.202;2023-03-22T03:57:28;98195.38;;;4.62;94.71
30618;BME280;17384;51.214;9.202;2023-03-22T03:59:54;98201.13;;;4.59;94.20
30618;BME280;17384;51.214;9.202;2023-03-22T04:02:19;98209.00;;;4.82;94.04
30618;BME280;17384;51.214;9.202;2023-03-22T04:04:45;98213.41;;;4.90;93.84
30618;BME280;17384;51.214;9.202;2023-03-22T04:07:10;98203.44;;;4.62;93.97
30618;BME280;17384;51.214;9.202;2023-03-22T04:09:37;98201.75;;;4.83;93.68
30618;BME280;17384;51.214;9.202;2023-03-22T04:12:03;98200.59;;;4.70;94.48
30618;BME280;17384;51.214;9.202;2023-03-22T04:14:28;98197.81;;;4.57;94.46
30618;BME280;17384;51.214;9.202;2023-03-22T04:16:54;98212.75;;;4.45;94.87
30618;BME280;17384;51.214;9.202;2023-03-22T04:19:20;98199.72;;;4.42;95.06
30618;BME280;17384;51.214;9.202;2023-03-22T04:21:46;98199.66;;;4.35;95.45
30618;BME280;17384;51.214;9.202;2023-03-22T04:24:12;98189.41;;;4.46;95.35
30618;BME280;17384;51.214;9.202;2023-03-22T04:26:38;98196.06;;;4.50;95.21
30618;BME280;17384;51.214;9.202;2023-03-22T04:29:04;98194.09;;;4.58;95.10
30618;BME280;17384;51.214;9.202;2023-03-22T04:31:30;98197.38;;;4.54;95.17
30618;BME280;17384;51.214;9.202;2023-03-22T04:33:56;98188.47;;;4.53;94.55
30618;BME280;17384;51.214;9.202;2023-03-22T04:36:25;98191.16;;;4.32;95.15
30618;BME280;17384;51.214;9.202;2023-03-22T04:38:55;98189.53;;;4.16;95.70
30618;BME280;17384;51.214;9.202;2023-03-22T04:41:21;98184.16;;;4.16;95.69
30618;BME280;17384;51.214;9.202;2023-03-22T04:43:46;98188.44;;;4.11;95.95
30618;BME280;17384;51.214;9.202;2023-03-22T04:46:15;98180.00;;;4.14;95.96
30618;BME280;17384;51.214;9.202;2023-03-22T04:48:41;98194.91;;;4.16;96.22
30618;BME280;17384;51.214;9.202;2023-03-22T04:51:08;98201.00;;;4.25;96.08
30618;BME280;17384;51.214;9.202;2023-03-22T04:53:35;98191.66;;;4.21;96.27
30618;BME280;17384;51.214;9.202;2023-03-22T04:56:09;98192.03;;;4.18;96.01
30618;BME280;17384;51.214;9.202;2023-03-22T04:58:38;98187.38;;;4.48;96.66
30618;BME280;17384;51.214;9.202;2023-03-22T05:01:08;98177.47;;;4.48;96.02
30618;BME280;17384;51.214;9.202;2023-03-22T05:03:34;98188.41;;;4.47;95.99
30618;BME280;17384;51.214;9.202;2023-03-22T05:06:03;98175.09;;;4.60;95.46
30618;BME280;17384;51.214;9.202;2023-03-22T05:08:30;98177.50;;;4.76;95.15
30618;BME280;17384;51.214;9.202;2023-03-22T05:10:58;98172.41;;;4.60;95.28
30618;BME280;17384;51.214;9.202;2023-03-22T05:13:26;98185.50;;;4.69;95.30
30618;BME280;17384;51.214;9.202;2023-03-22T05:15:52;98182.59;;;4.64;94.91
30618;BME280;17384;51.214;9.202;2023-03-22T05:18:20;98181.50;;;4.59;94.84
30618;BME280;17384;51.214;9.202;2023-03-22T05:20:46;98192.88;;;4.61;94.39
30618;BME280;17384;51.214;9.202;2023-03-22T05:23:15;98180.47;;;4.60;95.07
30618;BME280;17384;51.214;9.202;2023-03-22T05:25:49;98189.94;;;4.56;95.29
30618;BME280;17384;51.214;9.202;2023-03-22T05:28:16;98187.25;;;4.56;95.75
30618;BME280;17384;51.214;9.202;2023-03-22T05:30:44;98188.03;;;4.50;95.97
30618;BME280;17384;51.214;9.202;2023-03-22T05:33:10;98194.03;;;4.52;95.94
30618;BME280;17384;51.214;9.202;2023-03-22T05:35:38;98186.34;;;4.49;95.98
30618;BME280;17384;51.214;9.202;2023-03-22T05:38:04;98179.31;;;4.48;95.98
30618;BME280;17384;51.214;9.202;2023-03-22T05:40:30;98186.22;;;4.57;96.27
30618;BME280;17384;51.214;9.202;2023-03-22T05:42:56;98180.09;;;4.63;95.44
30618;BME280;17384;51.214;9.202;2023-03-22T05:45:22;98189.41;;;4.67;95.04
30618;BME280;17384;51.214;9.202;2023-03-22T05:47:48;98176.78;;;4.61;94.86
30618;BME280;17384;51.214;9.202;2023-03-22T05:50:16;98182.97;;;4.61;95.08
30618;BME280;17384;51.214;9.202;2023-03-22T05:52:43;98179.66;;;4.59;95.28
30618;BME280;17384;51.214;9.202;2023-03-22T05:55:09;98180.47;;;4.60;95.49
30618;BME280;17384;51.214;9.202;2023-03-22T05:57:37;98178.66;;;4.67;95.50
30618;BME280;17384;51.214;9.202;2023-03-22T06:00:04;98173.88;;;4.84;94.75
30618;BME280;17384;51.214;9.202;2023-03-22T06:02:33;98175.78;;;4.90;94.40
30618;BME280;17384;51.214;9.202;2023-03-22T06:04:59;98177.03;;;4.94;94.48
30618;BME280;17384;51.214;9.202;2023-03-22T06:07:25;98176.44;;;4.98;93.96
30618;BME280;17384;51.214;9.202;2023-03-22T06:09:51;98180.72;;;4.93;94.00
30618;BME280;17384;51.214;9.202;2023-03-22T06:12:16;98171.66;;;4.94;94.74
30618;BME280;17384;51.214;9.202;2023-03-22T06:14:42;98179.94;;;4.92;94.80
30618;BME280;17384;51.214;9.202;2023-03-22T06:17:08;98177.31;;;5.05;95.08
30618;BME280;17384;51.214;9.202;2023-03-22T06:19:34;98158.56;;;5.12;95.44
30618;BME280;17384;51.214;9.202;2023-03-22T06:21:59;98151.84;;;5.29;95.56
30618;BME280;17384;51.214;9.202;2023-03-22T06:24:25;98155.44;;;5.43;95.21
30618;BME280;17384;51.214;9.202;2023-03-22T06:26:50;98162.06;;;5.47;95.08
30618;BME280;17384;51.214;9.202;2023-03-22T06:29:15;98168.41;;;5.67;95.49
30618;BME280;17384;51.214;9.202;2023-03-22T06:31:41;98164.72;;;5.82;95.06
30618;BME280;17384;51.214;9.202;2023-03-22T06:34:06;98165.44;;;5.97;93.64
30618;BME280;17384;51.214;9.202;2023-03-22T06:36:32;98155.31;;;5.99;93.92
30618;BME280;17384;51.214;9.202;2023-03-22T06:38:57;98172.09;;;6.07;93.79
30618;BME280;17384;51.214;9.202;2023-03-22T06:41:25;98173.84;;;6.28;93.14
30618;BME280;17384;51.214;9.202;2023-03-22T06:43:50;98162.44;;;6.39;93.12
30618;BME280;17384;51.214;9.202;2023-03-22T06:46:16;98174.91;;;6.54;91.58
30618;BME280;17384;51.214;9.202;2023-03-22T06:51:16;98180.09;;;6.62;92.26
30618;BME280;17384;51.214;9.202;2023-03-22T06:53:42;98172.63;;;6.64;92.48
30618;BME280;17384;51.214;9.202;2023-03-22T06:56:07;98171.41;;;6.73;92.45
30618;BME280;17384;51.214;9.202;2023-03-22T06:58:33;98163.75;;;6.83;92.15
30618;BME280;17384;51.214;9.202;2023-03-22T07:00:58;98178.44;;;7.13;91.53
30618;BME280;17384;51.214;9.202;2023-03-22T07:03:24;98169.72;;;7.25;90.47
30618;BME280;17384;51.214;9.202;2023-03-22T07:05:49;98180.03;;;7.47;89.60
30618;BME280;17384;51.214;9.202;2023-03-22T07:08:15;98181.91;;;7.54;89.32
30618;BME280;17384;51.214;9.202;2023-03-22T07:10:41;98186.72;;;8.03;87.74
30618;BME280;17384;51.214;9.202;2023-03-22T07:13:08;98169.66;;;8.09;87.07
30618;BME280;17384;51.214;9.202;2023-03-22T07:15:34;98170.25;;;8.56;85.85
30618;BME280;17384;51.214;9.202;2023-03-22T07:18:01;98168.84;;;8.78;84.75
30618;BME280;17384;51.214;9.202;2023-03-22T07:20:26;98161.88;;;8.64;85.17
30618;BME280;17384;51.214;9.202;2023-03-22T07:22:52;98171.00;;;8.69;84.26
30618;BME280;17384;51.214;9.202;2023-03-22T07:25:18;98164.31;;;8.47;85.79
30618;BME280;17384;51.214;9.202;2023-03-22T07:27:44;98170.97;;;8.44;85.19
30618;BME280;17384;51.214;9.202;2023-03-22T07:30:10;98169.75;;;8.40;86.08
30618;BME280;17384;51.214;9.202;2023-03-22T07:32:39;98158.72;;;8.42;86.42
30618;BME280;17384;51.214;9.202;2023-03-22T07:35:06;98175.25;;;8.52;85.00
30618;BME280;17384;51.214;9.202;2023-03-22T07:37:32;98162.13;;;8.56;85.18
30618;BME280;17384;51.214;9.202;2023-03-22T07:39:57;98173.25;;;8.47;84.53
30618;BME280;17384;51.214;9.202;2023-03-22T07:42:23;98180.78;;;8.32;84.30
30618;BME280;17384;51.214;9.202;2023-03-22T07:44:48;98174.97;;;8.22;84.22
30618;BME280;17384;51.214;9.202;2023-03-22T07:47:14;98166.50;;;8.19;84.77
30618;BME280;17384;51.214;9.202;2023-03-22T07:49:40;98158.03;;;8.08;84.56
30618;BME280;17384;51.214;9.202;2023-03-22T07:52:05;98164.25;;;8.09;84.75
30618;BME280;17384;51.214;9.202;2023-03-22T07:54:31;98165.06;;;8.16;85.11
30618;BME280;17384;51.214;9.202;2023-03-22T07:56:57;98157.56;;;8.18;84.66
30618;BME280;17384;51.214;9.202;2023-03-22T07:59:22;98154.69;;;8.13;84.58
30618;BME280;17384;51.214;9.202;2023-03-22T08:01:49;98156.69;;;8.24;84.47
30618;BME280;17384;51.214;9.202;2023-03-22T08:04:14;98149.84;;;8.22;83.98
30618;BME280;17384;51.214;9.202;2023-03-22T08:06:41;98148.16;;;8.34;84.00
30618;BME280;17384;51.214;9.202;2023-03-22T08:09:07;98145.97;;;8.49;83.26
30618;BME280;17384;51.214;9.202;2023-03-22T08:11:34;98146.06;;;8.67;81.74
30618;BME280;17384;51.214;9.202;2023-03-22T08:13:59;98140.81;;;8.97;80.85
30618;BME280;17384;51.214;9.202;2023-03-22T08:16:25;98146.66;;;9.19;81.13
30618;BME280;17384;51.214;9.202;2023-03-22T08:18:50;98123.53;;;9.41;78.70
30618;BME280;17384;51.214;9.202;2023-03-22T08:21:16;98147.97;;;9.53;79.13
30618;BME280;17384;51.214;9.202;2023-03-22T08:23:41;98141.63;;;9.59;77.93
30618;BME280;17384;51.214;9.202;2023-03-22T08:26:07;98123.63;;;9.53;78.02
30618;BME280;17384;51.214;9.202;2023-03-22T08:28:32;98133.41;;;9.54;77.65
30618;BME280;17384;51.214;9.202;2023-03-22T08:30:58;98121.78;;;9.47;78.32
30618;BME280;17384;51.214;9.202;2023-03-22T08:33:23;98115.03;;;9.74;76.91
30618;BME280;17384;51.214;9.202;2023-03-22T08:35:50;98123.50;;;9.96;76.55
30618;BME280;17384;51.214;9.202;2023-03-22T08:38:15;98117.88;;;9.79;76.49
30618;BME280;17384;51.214;9.202;2023-03-22T08:40:41;98122.09;;;9.75;76.38
30618;BME280;17384;51.214;9.202;2023-03-22T08:43:09;98118.34;;;9.76;76.29
30618;BME280;17384;51.214;9.202;2023-03-22T08:45:35;98135.47;;;9.70;77.02
30618;BME280;17384;51.214;9.202;2023-03-22T08:48:01;98122.25;;;9.62;76.93
30618;BME280;17384;51.214;9.202;2023-03-22T08:50:27;98133.44;;;9.66;77.02
30618;BME280;17384;51.214;9.202;2023-03-22T08:52:52;98129.78;;;9.78;77.54
30618;BME280;17384;51.214;9.202;2023-03-22T08:55:18;98115.00;;;9.93;77.79
30618;BME280;17384;51.214;9.202;2023-03-22T08:57:44;98114.00;;;9.87;76.59
30618;BME280;17384;51.214;9.202;2023-03-22T09:00:15;98122.25;;;9.62;77.47
30618;BME280;17384;51.214;9.202;2023-03-22T09:02:41;98117.59;;;9.69;76.92
30618;BME280;17384;51.214;9.202;2023-03-22T09:05:07;98108.25;;;9.65;76.79
30618;BME280;17384;51.214;9.202;2023-03-22T09:07:33;98102.91;;;9.77;77.48
30618;BME280;17384;51.214;9.202;2023-03-22T09:09:58;98106.28;;;9.72;77.26
30618;BME280;17384;51.214;9.202;2023-03-22T09:12:24;98097.56;;;9.70;75.84
30618;BME280;17384;51.214;9.202;2023-03-22T09:14:50;98098.03;;;9.67;76.33
30618;BME280;17384;51.214;9.202;2023-03-22T09:17:16;98110.06;;;9.71;76.13
30618;BME280;17384;51.214;9.202;2023-03-22T09:19:43;98088.84;;;9.68;75.98
30618;BME280;17384;51.214;9.202;2023-03-22T09:22:09;98082.72;;;9.91;77.63
30618;BME280;17384;51.214;9.202;2023-03-22T09:24:35;98076.28;;;10.04;76.42
30618;BME280;17384;51.214;9.202;2023-03-22T09:27:01;98087.28;;;10.09;74.89
30618;BME280;17384;51.214;9.202;2023-03-22T09:29:27;98086.34;;;10.15;74.19
30618;BME280;17384;51.214;9.202;2023-03-22T09:31:53;98093.59;;;10.21;73.84
30618;BME280;17384;51.214;9.202;2023-03-22T09:34:18;98086.31;;;10.03;74.64
30618;BME280;17384;51.214;9.202;2023-03-22T09:36:43;98073.28;;;10.12;73.09
30618;BME280;17384;51.214;9.202;2023-03-22T09:39:09;98087.13;;;10.04;73.93
30618;BME280;17384;51.214;9.202;2023-03-22T09:41:38;98069.84;;;10.16;74.24
30618;BME280;17384;51.214;9.202;2023-03-22T09:44:11;98060.00;;;10.22;73.46
30618;BME280;17384;51.214;9.202;2023-03-22T09:46:40;98059.34;;;10.38;74.13
30618;BME280;17384;51.214;9.202;2023-03-22T09:49:33;98064.69;;;10.57;72.47
30618;BME280;17384;51.214;9.202;2023-03-22T09:52:00;98051.06;;;10.33;71.33
30618;BME280;17384;51.214;9.202;2023-03-22T09:54:34;98053.38;;;10.60;73.30
30618;BME280;17384;51.214;9.202;2023-03-22T09:57:31;98054.41;;;10.70;73.42
30618;BME280;17384;51.214;9.202;2023-03-22T10:00:04;98045.72;;;10.80;71.44
30618;BME280;17384;51.214;9.202;2023-03-22T10:05:42;98041.81;;;10.76;71.60
30618;BME280;17384;51.214;9.202;2023-03-22T10:10:44;98026.84;;;10.62;70.81
30618;BME280;17384;51.214;9.202;2023-03-22T10:15:56;98040.75;;;10.65;71.15
30618;BME280;17384;51.214;9.202;2023-03-22T10:21:04;98044.63;;;11.04;67.89
30618;BME280;17384;51.214;9.202;2023-03-22T10:23:38;98043.94;;;11.21;67.81
30618;BME280;17384;51.214;9.202;2023-03-22T10:26:06;98049.34;;;10.97;67.84
30618;BME280;17384;51.214;9.202;2023-03-22T10:28:40;98035.09;;;11.13;68.21
30618;BME280;17384;51.214;9.202;2023-03-22T10:31:12;98049.47;;;11.02;68.00
30618;BME280;17384;51.214;9.202;2023-03-22T10:34:04;98048.06;;;10.88;69.98
30618;BME280;17384;51.214;9.202;2023-03-22T10:36:29;98034.84;;;10.80;67.60
30618;BME280;17384;51.214;9.202;2023-03-22T10:38:59;98042.16;;;10.68;68.46
30618;BME280;17384;51.214;9.202;2023-03-22T10:41:28;98022.34;;;10.79;69.51
30618;BME280;17384;51.214;9.202;2023-03-22T10:43:59;98057.88;;;10.89;68.61
30618;BME280;17384;51.214;9.202;2023-03-22T10:46:33;98041.47;;;10.84;69.63
30618;BME280;17384;51.214;9.202;2023-03-22T10:49:02;98055.50;;;11.04;70.20
30618;BME280;17384;51.214;9.202;2023-03-22T10:51:39;98067.88;;;11.24;69.46
30618;BME280;17384;51.214;9.202;2023-03-22T10:54:12;98055.50;;;11.04;67.72
30618;BME280;17384;51.214;9.202;2023-03-22T10:56:38;98056.69;;;11.08;68.55
30618;BME280;17384;51.214;9.202;2023-03-22T10:59:04;98061.16;;;11.14;68.43
30618;BME280;17384;51.214;9.202;2023-03-22T11:01:31;98053.50;;;11.11;67.19
30618;BME280;17384;51.214;9.202;2023-03-22T11:04:05;98050.88;;;11.28;66.45
30618;BME280;17384;51.214;9.202;2023-03-22T11:06:32;98060.31;;;11.26;68.02
30618;BME280;17384;51.214;9.202;2023-03-22T11:09:11;98054.53;;;11.34;67.81
30618;BME280;17384;51.214;9.202;2023-03-22T11:11:45;98053.53;;;11.51;66.07
30618;BME280;17384;51.214;9.202;2023-03-22T11:16:55;98037.81;;;11.65;66.21
30618;BME280;17384;51.214;9.202;2023-03-22T11:19:24;98052.47;;;11.52;65.13
30618;BME280;17384;51.214;9.202;2023-03-22T11:21:53;98041.16;;;11.44;66.41
30618;BME280;17384;51.214;9.202;2023-03-22T11:24:19;98035.94;;;11.54;64.97
30618;BME280;17384;51.214;9.202;2023-03-22T11:27:24;98004.22;;;11.43;64.48
30618;BME280;17384;51.214;9.202;2023-03-22T11:30:16;98030.06;;;11.45;64.98
30618;BME280;17384;51.214;9.202;2023-03-22T11:32:44;98018.53;;;11.67;63.79
30618;BME280;17384;51.214;9.202;2023-03-22T11:35:23;98022.38;;;11.94;64.12
30618;BME280;17384;51.214;9.202;2023-03-22T11:37:54;98007.94;;;11.94;62.31
30618;BME280;17384;51.214;9.202;2023-03-22T11:40:27;98008.63;;;12.01;64.20
30618;BME280;17384;51.214;9.202;2023-03-22T11:42:56;98005.78;;;12.24;61.46
30618;BME280;17384;51.214;9.202;2023-03-22T11:45:30;98008.91;;;12.33;61.63
30618;BME280;17384;51.214;9.202;2023-03-22T11:48:08;97989.03;;;12.32;61.09
30618;BME280;17384;51.214;9.202;2023-03-22T11:50:38;98008.25;;;12.42;61.47
30618;BME280;17384;51.214;9.202;2023-03-22T11:53:10;97999.31;;;12.97;60.17
30618;BME280;17384;51.214;9.202;2023-03-22T11:55:36;97998.97;;;12.94;59.02
30618;BME280;17384;51.214;9.202;2023-03-22T11:58:03;97988.47;;;13.41;58.28
30618;BME280;17384;51.214;9.202;2023-03-22T12:00:31;97949.72;;;13.34;56.89
30618;BME280;17384;51.214;9.202;2023-03-22T12:03:22;97979.88;;;13.27;56.11
30618;BME280;17384;51.214;9.202;2023-03-22T12:05:50;97999.56;;;13.34;56.54
30618;BME280;17384;51.214;9.202;2023-03-22T12:08:27;97997.53;;;13.25;56.98
30618;BME280;17384;51.214;9.202;2023-03-22T12:11:05;98012.50;;;13.66;57.36
30618;BME280;17384;51.214;9.202;2023-03-22T12:13:48;98012.97;;;13.19;56.40
30618;BME280;17384;51.214;9.202;2023-03-22T12:16:20;98023.78;;;13.52;58.12
30618;BME280;17384;51.214;9.202;2023-03-22T12:21:22;98000.94;;;12.98;58.61
30618;BME280;17384;51.214;9.202;2023-03-22T12:23:47;97993.97;;;12.69;58.34
30618;BME280;17384;51.214;9.202;2023-03-22T12:26:20;98001.06;;;12.70;58.09
30618;BME280;17384;51.214;9.202;2023-03-22T12:28:55;97993.56;;;12.77;58.02
30618;BME280;17384;51.214;9.202;2023-03-22T12:31:28;98000.34;;;12.74;56.68
30618;BME280;17384;51.214;9.202;2023-03-22T12:33:59;97991.38;;;12.57;56.81
30618;BME280;17384;51.214;9.202;2023-03-22T12:36:35;97994.97;;;12.79;57.91
30618;BME280;17384;51.214;9.202;2023-03-22T12:39:06;97988.53;;;12.85;57.74
30618;BME280;17384;51.214;9.202;2023-03-22T12:41:36;97981.13;;;12.81;57.29
30618;BME280;17384;51.214;9.202;2023-03-22T12:44:08;97986.97;;;12.73;57.41
30618;BME280;17384;51.214;9.202;2023-03-22T12:46:44;97982.34;;;12.73;59.39
30618;BME280;17384;51.214;9.202;2023-03-22T12:49:49;97985.06;;;12.73;58.18
30618;BME280;17384;51.214;9.202;2023-03-22T12:55:19;97969.00;;;12.72;56.76
30618;BME280;17384;51.214;9.202;2023-03-22T12:57:45;97976.38;;;12.93;57.57
30618;BME280;17384;51.214;9.202;2023-03-22T13:00:17;97976.19;;;13.00;57.18
30618;BME280;17384;51.214;9.202;2023-03-22T13:03:02;97966.22;;;13.05;57.33
30618;BME280;17384;51.214;9.202;2023-03-22T13:05:32;97980.63;;;13.23;55.71
30618;BME280;17384;51.214;9.202;2023-03-22T13:07:58;97959.59;;;13.18;56.28
30618;BME280;17384;51.214;9.202;2023-03-22T13:21:19;97948.34;;;13.14;55.30
30618;BME280;17384;51.214;9.202;2023-03-22T13:26:43;97947.78;;;13.12;56.17
30618;BME280;17384;51.214;9.202;2023-03-22T13:34:22;97941.47;;;13.29;56.27
30618;BME280;17384;51.214;9.202;2023-03-22T13:36:58;97937.34;;;13.26;55.95
30618;BME280;17384;51.214;9.202;2023-03-22T13:39:31;97932.22;;;13.30;56.62
30618;BME280;17384;51.214;9.202;2023-03-22T13:44:41;97927.94;;;13.61;55.82
30618;BME280;17384;51.214;9.202;2023-03-22T13:50:09;97926.63;;;13.63;55.65
30618;BME280;17384;51.214;9.202;2023-03-22T13:52:40;97937.00;;;13.66;56.08
30618;BME280;17384;51.214;9.202;2023-03-22T13:55:34;97933.75;;;13.69;55.12
30618;BME280;17384;51.214;9.202;2023-03-22T13:58:01;97933.28;;;13.77;55.21
30618;BME280;17384;51.214;9.202;2023-03-22T14:02:56;97922.03;;;13.69;53.90
30618;BME280;17384;51.214;9.202;2023-03-22T14:05:25;97927.63;;;13.57;52.92
30618;BME280;17384;51.214;9.202;2023-03-22T14:07:55;97915.91;;;13.57;50.72
30618;BME280;17384;51.214;9.202;2023-03-22T14:10:44;97921.69;;;13.60;51.75
30618;BME280;17384;51.214;9.202;2023-03-22T14:16:06;97924.41;;;13.60;50.78
30618;BME280;17384;51.214;9.202;2023-03-22T14:18:40;97921.94;;;13.59;50.13
30618;BME280;17384;51.214;9.202;2023-03-22T14:21:12;97913.03;;;13.68;51.19
30618;BME280;17384;51.214;9.202;2023-03-22T14:23:48;97917.06;;;13.61;50.44
30618;BME280;17384;51.214;9.202;2023-03-22T14:26:20;97919.53;;;13.62;51.71
30618;BME280;17384;51.214;9.202;2023-03-22T14:28:46;97909.75;;;13.66;51.74
30618;BME280;17384;51.214;9.202;2023-03-22T14:31:26;97920.94;;;13.70;50.89
30618;BME280;17384;51.214;9.202;2023-03-22T14:33:54;97908.69;;;13.72;49.65
30618;BME280;17384;51.214;9.202;2023-03-22T14:36:27;97911.44;;;13.72;50.11
30618;BME280;17384;51.214;9.202;2023-03-22T14:38:53;97912.31;;;13.78;50.24
30618;BME280;17384;51.214;9.202;2023-03-22T14:41:23;97912.63;;;13.81;50.82
30618;BME280;17384;51.214;9.202;2023-03-22T14:43:55;97906.59;;;13.79;51.02
30618;BME280;17384;51.214;9.202;2023-03-22T14:46:25;97910.78;;;13.87;50.69